sensor_id;sensor_type;location;lat;lon;timestamp;P1;durP1;ratioP1;P2;durP2;ratioP2
9914;SDS011;4996;48.746;9.174;2022-12-07T00:01:28;7.50;;;5.05;;
9914;SDS011;4996;48.746;9.174;2022-12-07T00:03:55;13.07;;;6.22;;
9914;SDS011;4996;48.746;9.174;2022-12-07T00:06:31;8.38;;;5.25;;
9914;SDS011;4996;48.746;9.174;2022-12-07T00:08:58;9.10;;;5.38;;
9914;SDS011;4996;48.746;9.174;2022-12-07T00:11:24;9.80;;;6.03;;
9914;SDS011;4996;48.746;9.174;2022-12-07T00:13:53;8.55;;;5.40;;
9914;SDS011;4996;48.746;9.174;2022-12-07T00:16:20;8.90;;;6.03;;
9914;SDS011;4996;48.746;9.174;2022-12-07T00:18:47;11.02;;;6.97;;
9914;SDS011;4996;48.746;9.174;2022-12-07T00:21:17;8.03;;;5.37;;
9914;SDS011;4996;48.746;9.174;2022-12-07T00:23:48;8.50;;;5.30;;
9914;SDS011;4996;48.746;9.174;2022-12-07T00:26:19;6.70;;;4.90;;
9914;SDS011;4996;48.746;9.174;2022-12-07T00:28:55;10.07;;;6.57;;
9914;SDS011;4996;48.746;9.174;2022-12-07T00:31:24;8.45;;;5.50;;
9914;SDS011;4996;48.746;9.174;2022-12-07T00:33:52;11.85;;;6.97;;
9914;SDS011;4996;48.746;9.174;2022-12-07T00:36:18;10.07;;;5.97;;
9914;SDS011;4996;48.746;9.174;2022-12-07T00:38:46;8.85;;;6.50;;
9914;SDS011;4996;48.746;9.174;2022-12-07T00:43:39;15.23;;;8.52;;
9914;SDS011;4996;48.746;9.174;2022-12-07T00:46:06;13.15;;;7.13;;
9914;SDS011;4996;48.746;9.174;2022-12-07T00:48:31;10.80;;;6.93;;
9914;SDS011;4996;48.746;9.174;2022-12-07T00:50:57;10.90;;;6.80;;
9914;SDS011;4996;48.746;9.174;2022-12-07T00:53:23;8.30;;;5.10;;
9914;SDS011;4996;48.746;9.174;2022-12-07T00:55:48;11.93;;;7.50;;
9914;SDS011;4996;48.746;9.174;2022-12-07T00:58:14;11.73;;;7.87;;
9914;SDS011;4996;48.746;9.174;2022-12-07T01:00:40;10.43;;;7.00;;
9914;SDS011;4996;48.746;9.174;2022-12-07T01:03:08;9.80;;;7.45;;
9914;SDS011;4996;48.746;9.174;2022-12-07T01:05:35;9.05;;;6.65;;
9914;SDS011;4996;48.746;9.174;2022-12-07T01:08:01;10.23;;;6.53;;
9914;SDS011;4996;48.746;9.174;2022-12-07T01:10:27;15.15;;;8.32;;
9914;SDS011;4996;48.746;9.174;2022-12-07T01:12:53;12.40;;;7.97;;
9914;SDS011;4996;48.746;9.174;2022-12-07T01:15:19;10.60;;;7.13;;
9914;SDS011;4996;48.746;9.174;2022-12-07T01:17:44;11.00;;;7.63;;
9914;SDS011;4996;48.746;9.174;2022-12-07T01:20:10;13.57;;;8.20;;
9914;SDS011;4996;48.746;9.174;2022-12-07T01:22:39;13.80;;;8.73;;
9914;SDS011;4996;48.746;9.174;2022-12-07T01:25:06;10.18;;;7.30;;
9914;SDS011;4996;48.746;9.174;2022-12-07T01:27:33;11.27;;;7.32;;
9914;SDS011;4996;48.746;9.174;2022-12-07T01:29:59;11.68;;;7.45;;
9914;SDS011;4996;48.746;9.174;2022-12-07T01:32:25;14.27;;;8.30;;
9914;SDS011;4996;48.746;9.174;2022-12-07T01:34:51;14.33;;;8.23;;
9914;SDS011;4996;48.746;9.174;2022-12-07T01:37:16;13.60;;;7.17;;
9914;SDS011;4996;48.746;9.174;2022-12-07T01:39:42;14.30;;;7.27;;
9914;SDS011;4996;48.746;9.174;2022-12-07T01:42:11;13.37;;;7.63;;
9914;SDS011;4996;48.746;9.174;2022-12-07T01:47:41;12.55;;;7.38;;
9914;SDS011;4996;48.746;9.174;2022-12-07T01:50:08;12.45;;;7.47;;
9914;SDS011;4996;48.746;9.174;2022-12-07T01:52:34;10.50;;;7.20;;
9914;SDS011;4996;48.746;9.174;2022-12-07T01:55:06;11.85;;;7.20;;
9914;SDS011;4996;48.746;9.174;2022-12-07T01:57:36;19.75;;;8.02;;
9914;SDS011;4996;48.746;9.174;2022-12-07T02:00:05;10.60;;;7.60;;
9914;SDS011;4996;48.746;9.174;2022-12-07T02:02:37;12.57;;;7.80;;
9914;SDS011;4996;48.746;9.174;2022-12-07T02:05:05;13.80;;;7.88;;
9914;SDS011;4996;48.746;9.174;2022-12-07T02:07:32;10.90;;;6.20;;
9914;SDS011;4996;48.746;9.174;2022-12-07T02:10:16;10.23;;;6.07;;
9914;SDS011;4996;48.746;9.174;2022-12-07T02:13:01;12.43;;;6.43;;
9914;SDS011;4996;48.746;9.174;2022-12-07T02:19:21;13.02;;;7.03;;
9914;SDS011;4996;48.746;9.174;2022-12-07T02:35:18;8.30;;;5.43;;
9914;SDS011;4996;48.746;9.174;2022-12-07T02:40:37;13.00;;;6.80;;
9914;SDS011;4996;48.746;9.174;2022-12-07T02:43:23;15.80;;;7.47;;
9914;SDS011;4996;48.746;9.174;2022-12-07T02:45:49;14.85;;;7.05;;
9914;SDS011;4996;48.746;9.174;2022-12-07T02:48:18;11.15;;;7.10;;
9914;SDS011;4996;48.746;9.174;2022-12-07T02:50:48;10.25;;;6.72;;
9914;SDS011;4996;48.746;9.174;2022-12-07T02:53:34;13.10;;;7.63;;
9914;SDS011;4996;48.746;9.174;2022-12-07T02:56:05;14.70;;;8.02;;
9914;SDS011;4996;48.746;9.174;2022-12-07T03:04:31;10.90;;;5.97;;
9914;SDS011;4996;48.746;9.174;2022-12-07T03:10:10;10.20;;;6.95;;
9914;SDS011;4996;48.746;9.174;2022-12-07T03:15:31;12.57;;;7.03;;
9914;SDS011;4996;48.746;9.174;2022-12-07T03:18:12;9.00;;;6.40;;
9914;SDS011;4996;48.746;9.174;2022-12-07T03:20:43;17.35;;;7.32;;
9914;SDS011;4996;48.746;9.174;2022-12-07T03:23:12;14.77;;;7.75;;
9914;SDS011;4996;48.746;9.174;2022-12-07T03:25:40;12.00;;;7.60;;
9914;SDS011;4996;48.746;9.174;2022-12-07T03:28:10;10.43;;;7.22;;
9914;SDS011;4996;48.746;9.174;2022-12-07T03:31:01;10.30;;;6.85;;
9914;SDS011;4996;48.746;9.174;2022-12-07T03:33:28;13.70;;;7.55;;
9914;SDS011;4996;48.746;9.174;2022-12-07T03:38:42;12.98;;;7.63;;
9914;SDS011;4996;48.746;9.174;2022-12-07T03:41:19;11.52;;;6.40;;
9914;SDS011;4996;48.746;9.174;2022-12-07T03:43:48;11.90;;;6.80;;
9914;SDS011;4996;48.746;9.174;2022-12-07T03:54:36;10.82;;;7.47;;
9914;SDS011;4996;48.746;9.174;2022-12-07T03:57:08;12.82;;;7.88;;
9914;SDS011;4996;48.746;9.174;2022-12-07T03:59:36;12.18;;;6.93;;
9914;SDS011;4996;48.746;9.174;2022-12-07T04:02:04;9.43;;;6.40;;
9914;SDS011;4996;48.746;9.174;2022-12-07T04:04:31;10.23;;;6.90;;
9914;SDS011;4996;48.746;9.174;2022-12-07T04:06:58;11.00;;;6.32;;
9914;SDS011;4996;48.746;9.174;2022-12-07T04:09:23;10.93;;;6.47;;
9914;SDS011;4996;48.746;9.174;2022-12-07T04:11:49;12.80;;;7.40;;
9914;SDS011;4996;48.746;9.174;2022-12-07T04:14:15;9.57;;;5.97;;
9914;SDS011;4996;48.746;9.174;2022-12-07T04:16:43;9.35;;;5.97;;
9914;SDS011;4996;48.746;9.174;2022-12-07T04:19:16;12.45;;;7.38;;
9914;SDS011;4996;48.746;9.174;2022-12-07T04:21:43;8.88;;;6.43;;
9914;SDS011;4996;48.746;9.174;2022-12-07T04:24:11;12.73;;;7.00;;
9914;SDS011;4996;48.746;9.174;2022-12-07T04:26:37;8.95;;;5.07;;
9914;SDS011;4996;48.746;9.174;2022-12-07T04:29:02;12.07;;;6.87;;
9914;SDS011;4996;48.746;9.174;2022-12-07T04:31:28;12.57;;;7.60;;
9914;SDS011;4996;48.746;9.174;2022-12-07T04:33:54;9.87;;;5.80;;
9914;SDS011;4996;48.746;9.174;2022-12-07T04:36:19;10.30;;;6.33;;
9914;SDS011;4996;48.746;9.174;2022-12-07T04:38:45;11.40;;;7.17;;
9914;SDS011;4996;48.746;9.174;2022-12-07T04:41:11;10.02;;;6.43;;
9914;SDS011;4996;48.746;9.174;2022-12-07T04:43:37;13.83;;;6.17;;
9914;SDS011;4996;48.746;9.174;2022-12-07T04:46:02;9.23;;;5.77;;
9914;SDS011;4996;48.746;9.174;2022-12-07T04:48:28;9.73;;;5.90;;
9914;SDS011;4996;48.746;9.174;2022-12-07T04:53:24;11.48;;;7.15;;
9914;SDS011;4996;48.746;9.174;2022-12-07T04:55:49;7.40;;;5.30;;
9914;SDS011;4996;48.746;9.174;2022-12-07T04:58:15;11.07;;;6.70;;
9914;SDS011;4996;48.746;9.174;2022-12-07T05:00:40;10.37;;;6.27;;
9914;SDS011;4996;48.746;9.174;2022-12-07T05:03:06;8.70;;;6.07;;
9914;SDS011;4996;48.746;9.174;2022-12-07T05:05:32;9.17;;;5.73;;
9914;SDS011;4996;48.746;9.174;2022-12-07T05:07:57;8.03;;;4.83;;
9914;SDS011;4996;48.746;9.174;2022-12-07T05:10:23;5.63;;;3.90;;
9914;SDS011;4996;48.746;9.174;2022-12-07T05:12:49;4.57;;;3.63;;
9914;SDS011;4996;48.746;9.174;2022-12-07T05:15:14;6.10;;;3.93;;
9914;SDS011;4996;48.746;9.174;2022-12-07T05:17:40;6.78;;;3.83;;
9914;SDS011;4996;48.746;9.174;2022-12-07T05:20:06;4.70;;;3.50;;
9914;SDS011;4996;48.746;9.174;2022-12-07T05:22:32;7.45;;;5.07;;
9914;SDS011;4996;48.746;9.174;2022-12-07T05:24:58;6.40;;;3.50;;
9914;SDS011;4996;48.746;9.174;2022-12-07T05:27:24;5.33;;;4.00;;
9914;SDS011;4996;48.746;9.174;2022-12-07T05:29:50;5.53;;;3.80;;
9914;SDS011;4996;48.746;9.174;2022-12-07T05:32:16;5.45;;;3.95;;
9914;SDS011;4996;48.746;9.174;2022-12-07T05:34:42;9.17;;;4.77;;
9914;SDS011;4996;48.746;9.174;2022-12-07T05:37:07;7.27;;;4.03;;
9914;SDS011;4996;48.746;9.174;2022-12-07T05:39:33;5.83;;;3.90;;
9914;SDS011;4996;48.746;9.174;2022-12-07T05:41:59;4.80;;;3.10;;
9914;SDS011;4996;48.746;9.174;2022-12-07T05:44:40;5.70;;;3.60;;
9914;SDS011;4996;48.746;9.174;2022-12-07T05:47:07;5.40;;;3.28;;
9914;SDS011;4996;48.746;9.174;2022-12-07T05:49:33;4.47;;;3.80;;
9914;SDS011;4996;48.746;9.174;2022-12-07T05:51:58;5.83;;;4.10;;
9914;SDS011;4996;48.746;9.174;2022-12-07T05:54:24;8.03;;;3.93;;
9914;SDS011;4996;48.746;9.174;2022-12-07T05:56:50;6.57;;;3.70;;
9914;SDS011;4996;48.746;9.174;2022-12-07T05:59:16;9.20;;;3.83;;
9914;SDS011;4996;48.746;9.174;2022-12-07T06:04:16;9.00;;;4.78;;
9914;SDS011;4996;48.746;9.174;2022-12-07T06:06:42;6.22;;;4.20;;
9914;SDS011;4996;48.746;9.174;2022-12-07T06:09:07;5.40;;;3.97;;
9914;SDS011;4996;48.746;9.174;2022-12-07T06:11:33;9.50;;;3.63;;
9914;SDS011;4996;48.746;9.174;2022-12-07T06:14:17;8.13;;;5.20;;
9914;SDS011;4996;48.746;9.174;2022-12-07T06:16:43;10.27;;;5.17;;
9914;SDS011;4996;48.746;9.174;2022-12-07T06:19:08;10.13;;;5.80;;
9914;SDS011;4996;48.746;9.174;2022-12-07T06:21:34;8.60;;;4.93;;
9914;SDS011;4996;48.746;9.174;2022-12-07T06:24:00;7.37;;;5.20;;
9914;SDS011;4996;48.746;9.174;2022-12-07T06:26:25;9.47;;;4.73;;
9914;SDS011;4996;48.746;9.174;2022-12-07T06:28:51;8.40;;;5.33;;
9914;SDS011;4996;48.746;9.174;2022-12-07T06:31:16;6.40;;;4.10;;
9914;SDS011;4996;48.746;9.174;2022-12-07T06:33:42;8.63;;;5.50;;
9914;SDS011;4996;48.746;9.174;2022-12-07T06:36:08;9.50;;;5.10;;
9914;SDS011;4996;48.746;9.174;2022-12-07T06:38:34;6.55;;;4.75;;
9914;SDS011;4996;48.746;9.174;2022-12-07T06:41:00;8.80;;;5.87;;
9914;SDS011;4996;48.746;9.174;2022-12-07T06:43:25;8.40;;;4.93;;
9914;SDS011;4996;48.746;9.174;2022-12-07T06:45:52;7.90;;;5.03;;
9914;SDS011;4996;48.746;9.174;2022-12-07T06:48:18;7.70;;;5.40;;
9914;SDS011;4996;48.746;9.174;2022-12-07T06:50:46;9.00;;;5.17;;
9914;SDS011;4996;48.746;9.174;2022-12-07T06:53:12;7.50;;;4.65;;
9914;SDS011;4996;48.746;9.174;2022-12-07T06:55:38;9.53;;;5.10;;
9914;SDS011;4996;48.746;9.174;2022-12-07T06:58:04;6.93;;;4.50;;
9914;SDS011;4996;48.746;9.174;2022-12-07T07:00:29;6.07;;;4.70;;
9914;SDS011;4996;48.746;9.174;2022-12-07T07:02:55;7.83;;;5.00;;
9914;SDS011;4996;48.746;9.174;2022-12-07T07:05:21;9.80;;;5.30;;
9914;SDS011;4996;48.746;9.174;2022-12-07T07:07:47;10.07;;;5.30;;
9914;SDS011;4996;48.746;9.174;2022-12-07T07:10:16;11.23;;;5.60;;
9914;SDS011;4996;48.746;9.174;2022-12-07T07:12:41;7.70;;;5.33;;
9914;SDS011;4996;48.746;9.174;2022-12-07T07:15:07;7.70;;;5.87;;
9914;SDS011;4996;48.746;9.174;2022-12-07T07:17:33;8.47;;;5.37;;
9914;SDS011;4996;48.746;9.174;2022-12-07T07:19:58;8.50;;;5.20;;
9914;SDS011;4996;48.746;9.174;2022-12-07T07:22:24;7.30;;;4.60;;
9914;SDS011;4996;48.746;9.174;2022-12-07T07:24:49;8.10;;;4.70;;
9914;SDS011;4996;48.746;9.174;2022-12-07T07:27:15;10.10;;;5.97;;
9914;SDS011;4996;48.746;9.174;2022-12-07T07:29:40;7.83;;;4.57;;
9914;SDS011;4996;48.746;9.174;2022-12-07T07:32:06;11.70;;;5.73;;
9914;SDS011;4996;48.746;9.174;2022-12-07T07:34:32;10.68;;;5.35;;
9914;SDS011;4996;48.746;9.174;2022-12-07T07:36:58;6.57;;;4.60;;
9914;SDS011;4996;48.746;9.174;2022-12-07T07:39:23;9.47;;;5.40;;
9914;SDS011;4996;48.746;9.174;2022-12-07T07:41:49;12.83;;;5.10;;
9914;SDS011;4996;48.746;9.174;2022-12-07T07:44:14;13.20;;;5.57;;
9914;SDS011;4996;48.746;9.174;2022-12-07T07:46:40;8.23;;;5.40;;
9914;SDS011;4996;48.746;9.174;2022-12-07T07:49:05;9.30;;;5.60;;
9914;SDS011;4996;48.746;9.174;2022-12-07T07:51:31;10.87;;;5.80;;
9914;SDS011;4996;48.746;9.174;2022-12-07T07:53:56;9.87;;;6.70;;
9914;SDS011;4996;48.746;9.174;2022-12-07T07:56:22;7.67;;;4.60;;
9914;SDS011;4996;48.746;9.174;2022-12-07T07:58:51;9.17;;;6.27;;
9914;SDS011;4996;48.746;9.174;2022-12-07T08:01:17;9.73;;;5.53;;
9914;SDS011;4996;48.746;9.174;2022-12-07T08:03:44;12.05;;;6.25;;
9914;SDS011;4996;48.746;9.174;2022-12-07T08:06:10;7.72;;;5.50;;
9914;SDS011;4996;48.746;9.174;2022-12-07T08:08:36;8.30;;;5.70;;
9914;SDS011;4996;48.746;9.174;2022-12-07T08:11:04;9.50;;;5.83;;
9914;SDS011;4996;48.746;9.174;2022-12-07T08:13:30;10.77;;;6.47;;
9914;SDS011;4996;48.746;9.174;2022-12-07T08:15:56;15.10;;;6.37;;
9914;SDS011;4996;48.746;9.174;2022-12-07T08:18:22;12.90;;;7.00;;
9914;SDS011;4996;48.746;9.174;2022-12-07T08:20:47;16.03;;;6.00;;
9914;SDS011;4996;48.746;9.174;2022-12-07T08:23:13;10.77;;;6.50;;
9914;SDS011;4996;48.746;9.174;2022-12-07T08:25:38;13.57;;;7.67;;
9914;SDS011;4996;48.746;9.174;2022-12-07T08:28:04;10.50;;;6.90;;
9914;SDS011;4996;48.746;9.174;2022-12-07T08:30:30;10.93;;;6.30;;
9914;SDS011;4996;48.746;9.174;2022-12-07T08:32:56;14.57;;;7.28;;
9914;SDS011;4996;48.746;9.174;2022-12-07T08:35:22;10.90;;;6.22;;
9914;SDS011;4996;48.746;9.174;2022-12-07T08:37:48;13.60;;;7.38;;
9914;SDS011;4996;48.746;9.174;2022-12-07T08:40:14;9.20;;;6.60;;
9914;SDS011;4996;48.746;9.174;2022-12-07T08:42:43;12.65;;;6.85;;
9914;SDS011;4996;48.746;9.174;2022-12-07T08:45:10;10.00;;;5.70;;
9914;SDS011;4996;48.746;9.174;2022-12-07T08:47:39;12.50;;;6.25;;
9914;SDS011;4996;48.746;9.174;2022-12-07T08:50:08;15.88;;;6.10;;
9914;SDS011;4996;48.746;9.174;2022-12-07T08:52:36;9.80;;;4.40;;
9914;SDS011;4996;48.746;9.174;2022-12-07T08:55:03;12.55;;;6.10;;
9914;SDS011;4996;48.746;9.174;2022-12-07T08:57:29;12.50;;;5.63;;
9914;SDS011;4996;48.746;9.174;2022-12-07T08:59:57;7.20;;;5.43;;
9914;SDS011;4996;48.746;9.174;2022-12-07T09:02:23;9.30;;;5.00;;
9914;SDS011;4996;48.746;9.174;2022-12-07T09:04:48;10.20;;;5.70;;
9914;SDS011;4996;48.746;9.174;2022-12-07T09:07:14;7.47;;;5.40;;
9914;SDS011;4996;48.746;9.174;2022-12-07T09:09:40;9.77;;;4.87;;
9914;SDS011;4996;48.746;9.174;2022-12-07T09:12:05;11.70;;;4.70;;
9914;SDS011;4996;48.746;9.174;2022-12-07T09:14:31;4.13;;;3.07;;
9914;SDS011;4996;48.746;9.174;2022-12-07T09:17:04;7.37;;;4.00;;
9914;SDS011;4996;48.746;9.174;2022-12-07T09:19:34;10.27;;;5.60;;
9914;SDS011;4996;48.746;9.174;2022-12-07T09:22:00;8.53;;;4.87;;
9914;SDS011;4996;48.746;9.174;2022-12-07T09:24:26;6.63;;;4.47;;
9914;SDS011;4996;48.746;9.174;2022-12-07T09:26:51;5.73;;;4.17;;
9914;SDS011;4996;48.746;9.174;2022-12-07T09:29:17;5.80;;;3.60;;
9914;SDS011;4996;48.746;9.174;2022-12-07T09:31:42;9.57;;;5.10;;
9914;SDS011;4996;48.746;9.174;2022-12-07T09:34:08;7.53;;;4.67;;
9914;SDS011;4996;48.746;9.174;2022-12-07T09:36:34;6.97;;;3.67;;
9914;SDS011;4996;48.746;9.174;2022-12-07T09:38:59;5.57;;;3.67;;
9914;SDS011;4996;48.746;9.174;2022-12-07T09:41:25;6.97;;;4.23;;
9914;SDS011;4996;48.746;9.174;2022-12-07T09:43:55;6.82;;;4.25;;
9914;SDS011;4996;48.746;9.174;2022-12-07T09:46:28;8.00;;;4.03;;
9914;SDS011;4996;48.746;9.174;2022-12-07T09:48:59;7.95;;;3.90;;
9914;SDS011;4996;48.746;9.174;2022-12-07T09:51:25;6.07;;;3.40;;
9914;SDS011;4996;48.746;9.174;2022-12-07T09:53:51;5.40;;;3.77;;
9914;SDS011;4996;48.746;9.174;2022-12-07T09:56:18;5.00;;;3.17;;
9914;SDS011;4996;48.746;9.174;2022-12-07T09:58:45;8.23;;;3.75;;
9914;SDS011;4996;48.746;9.174;2022-12-07T10:01:13;5.80;;;4.07;;
9914;SDS011;4996;48.746;9.174;2022-12-07T10:03:43;7.18;;;3.78;;
9914;SDS011;4996;48.746;9.174;2022-12-07T10:06:14;9.85;;;3.78;;
9914;SDS011;4996;48.746;9.174;2022-12-07T10:08:40;5.43;;;3.50;;
9914;SDS011;4996;48.746;9.174;2022-12-07T10:11:08;7.88;;;4.30;;
9914;SDS011;4996;48.746;9.174;2022-12-07T10:16:05;4.72;;;3.55;;
9914;SDS011;4996;48.746;9.174;2022-12-07T10:18:46;6.03;;;3.90;;
9914;SDS011;4996;48.746;9.174;2022-12-07T10:23:39;7.73;;;3.73;;
9914;SDS011;4996;48.746;9.174;2022-12-07T10:26:19;7.00;;;3.53;;
9914;SDS011;4996;48.746;9.174;2022-12-07T10:28:53;4.18;;;2.90;;
9914;SDS011;4996;48.746;9.174;2022-12-07T10:31:21;5.68;;;3.78;;
9914;SDS011;4996;48.746;9.174;2022-12-07T10:33:55;4.60;;;3.38;;
9914;SDS011;4996;48.746;9.174;2022-12-07T10:36:24;4.07;;;2.90;;
9914;SDS011;4996;48.746;9.174;2022-12-07T10:38:57;5.53;;;3.45;;
9914;SDS011;4996;48.746;9.174;2022-12-07T10:41:26;5.37;;;3.80;;
9914;SDS011;4996;48.746;9.174;2022-12-07T10:43:52;4.97;;;3.33;;
9914;SDS011;4996;48.746;9.174;2022-12-07T10:57:19;5.03;;;2.77;;
9914;SDS011;4996;48.746;9.174;2022-12-07T11:02:50;5.50;;;3.17;;
9914;SDS011;4996;48.746;9.174;2022-12-07T11:08:18;4.57;;;3.47;;
9914;SDS011;4996;48.746;9.174;2022-12-07T11:11:09;7.10;;;3.77;;
9914;SDS011;4996;48.746;9.174;2022-12-07T11:14:00;5.53;;;3.60;;
9914;SDS011;4996;48.746;9.174;2022-12-07T11:16:48;6.83;;;4.93;;
9914;SDS011;4996;48.746;9.174;2022-12-07T11:19:28;5.40;;;3.33;;
9914;SDS011;4996;48.746;9.174;2022-12-07T11:22:20;5.50;;;3.60;;
9914;SDS011;4996;48.746;9.174;2022-12-07T11:30:33;4.37;;;2.60;;
9914;SDS011;4996;48.746;9.174;2022-12-07T11:33:15;4.13;;;3.00;;
9914;SDS011;4996;48.746;9.174;2022-12-07T11:38:22;5.70;;;3.60;;
9914;SDS011;4996;48.746;9.174;2022-12-07T11:40:56;4.77;;;3.30;;
9914;SDS011;4996;48.746;9.174;2022-12-07T11:43:37;5.43;;;3.67;;
9914;SDS011;4996;48.746;9.174;2022-12-07T11:46:19;5.13;;;3.07;;
9914;SDS011;4996;48.746;9.174;2022-12-07T11:48:50;4.10;;;2.60;;
9914;SDS011;4996;48.746;9.174;2022-12-07T11:51:23;5.77;;;3.47;;
9914;SDS011;4996;48.746;9.174;2022-12-07T11:56:44;6.90;;;3.70;;
9914;SDS011;4996;48.746;9.174;2022-12-07T11:59:15;5.17;;;3.20;;
9914;SDS011;4996;48.746;9.174;2022-12-07T12:01:48;6.37;;;4.40;;
9914;SDS011;4996;48.746;9.174;2022-12-07T12:04:29;5.60;;;3.33;;
9914;SDS011;4996;48.746;9.174;2022-12-07T12:07:10;4.53;;;2.80;;
9914;SDS011;4996;48.746;9.174;2022-12-07T12:12:23;5.77;;;3.23;;
9914;SDS011;4996;48.746;9.174;2022-12-07T12:14:58;4.43;;;3.33;;
9914;SDS011;4996;48.746;9.174;2022-12-07T12:20:26;4.30;;;2.97;;
9914;SDS011;4996;48.746;9.174;2022-12-07T12:23:00;2.87;;;2.00;;
9914;SDS011;4996;48.746;9.174;2022-12-07T12:25:42;3.10;;;2.20;;
9914;SDS011;4996;48.746;9.174;2022-12-07T12:28:29;2.67;;;1.60;;
9914;SDS011;4996;48.746;9.174;2022-12-07T12:31:12;3.87;;;2.47;;
9914;SDS011;4996;48.746;9.174;2022-12-07T12:33:38;4.27;;;2.17;;
9914;SDS011;4996;48.746;9.174;2022-12-07T12:44:03;8.27;;;4.17;;
9914;SDS011;4996;48.746;9.174;2022-12-07T12:46:55;4.30;;;3.20;;
9914;SDS011;4996;48.746;9.174;2022-12-07T12:49:34;6.83;;;3.97;;
9914;SDS011;4996;48.746;9.174;2022-12-07T12:52:45;5.60;;;4.00;;
9914;SDS011;4996;48.746;9.174;2022-12-07T12:55:13;5.27;;;3.40;;
9914;SDS011;4996;48.746;9.174;2022-12-07T12:57:45;7.07;;;3.77;;
9914;SDS011;4996;48.746;9.174;2022-12-07T13:00:20;6.13;;;3.60;;
9914;SDS011;4996;48.746;9.174;2022-12-07T13:02:54;5.53;;;4.30;;
9914;SDS011;4996;48.746;9.174;2022-12-07T13:05:22;6.73;;;4.20;;
9914;SDS011;4996;48.746;9.174;2022-12-07T13:08:01;3.87;;;3.40;;
9914;SDS011;4996;48.746;9.174;2022-12-07T13:10:47;5.13;;;3.33;;
9914;SDS011;4996;48.746;9.174;2022-12-07T13:15:42;5.50;;;3.37;;
9914;SDS011;4996;48.746;9.174;2022-12-07T13:25:54;4.47;;;3.03;;
9914;SDS011;4996;48.746;9.174;2022-12-07T13:31:41;5.47;;;3.80;;
9914;SDS011;4996;48.746;9.174;2022-12-07T13:34:28;3.30;;;2.22;;
9914;SDS011;4996;48.746;9.174;2022-12-07T13:36:54;5.60;;;3.22;;
9914;SDS011;4996;48.746;9.174;2022-12-07T13:39:21;5.97;;;2.63;;
9914;SDS011;4996;48.746;9.174;2022-12-07T13:41:49;3.10;;;2.43;;
9914;SDS011;4996;48.746;9.174;2022-12-07T13:44:20;4.07;;;3.23;;
9914;SDS011;4996;48.746;9.174;2022-12-07T13:46:49;3.58;;;2.45;;
9914;SDS011;4996;48.746;9.174;2022-12-07T13:49:23;4.03;;;3.00;;
9914;SDS011;4996;48.746;9.174;2022-12-07T13:51:54;10.07;;;2.42;;
9914;SDS011;4996;48.746;9.174;2022-12-07T13:54:31;4.80;;;2.72;;
9914;SDS011;4996;48.746;9.174;2022-12-07T13:56:57;2.90;;;2.70;;
9914;SDS011;4996;48.746;9.174;2022-12-07T13:59:24;3.73;;;3.07;;
9914;SDS011;4996;48.746;9.174;2022-12-07T14:01:51;3.65;;;2.95;;
9914;SDS011;4996;48.746;9.174;2022-12-07T14:06:58;3.87;;;2.40;;
9914;SDS011;4996;48.746;9.174;2022-12-07T14:09:26;4.60;;;3.07;;
9914;SDS011;4996;48.746;9.174;2022-12-07T14:11:54;3.22;;;2.65;;
9914;SDS011;4996;48.746;9.174;2022-12-07T14:14:22;3.75;;;2.55;;
9914;SDS011;4996;48.746;9.174;2022-12-07T14:19:39;4.80;;;2.90;;
9914;SDS011;4996;48.746;9.174;2022-12-07T14:22:09;4.03;;;3.10;;
9914;SDS011;4996;48.746;9.174;2022-12-07T14:24:50;5.67;;;3.00;;
9914;SDS011;4996;48.746;9.174;2022-12-07T14:27:20;6.10;;;3.20;;
9914;SDS011;4996;48.746;9.174;2022-12-07T14:29:47;5.57;;;3.10;;
9914;SDS011;4996;48.746;9.174;2022-12-07T14:32:21;3.93;;;2.80;;
9914;SDS011;4996;48.746;9.174;2022-12-07T14:35:00;4.30;;;3.10;;
9914;SDS011;4996;48.746;9.174;2022-12-07T14:37:28;4.13;;;2.40;;
9914;SDS011;4996;48.746;9.174;2022-12-07T14:39:55;3.70;;;2.30;;
9914;SDS011;4996;48.746;9.174;2022-12-07T14:42:21;5.40;;;2.80;;
9914;SDS011;4996;48.746;9.174;2022-12-07T14:44:51;4.97;;;2.80;;
9914;SDS011;4996;48.746;9.174;2022-12-07T14:47:17;5.40;;;3.37;;
9914;SDS011;4996;48.746;9.174;2022-12-07T14:49:42;3.03;;;2.73;;
9914;SDS011;4996;48.746;9.174;2022-12-07T14:52:13;5.50;;;3.23;;
9914;SDS011;4996;48.746;9.174;2022-12-07T14:54:45;9.82;;;3.45;;
9914;SDS011;4996;48.746;9.174;2022-12-07T14:57:11;8.13;;;4.23;;
9914;SDS011;4996;48.746;9.174;2022-12-07T14:59:37;6.17;;;3.57;;
9914;SDS011;4996;48.746;9.174;2022-12-07T15:02:02;8.30;;;4.90;;
9914;SDS011;4996;48.746;9.174;2022-12-07T15:04:28;5.30;;;3.80;;
9914;SDS011;4996;48.746;9.174;2022-12-07T15:06:57;3.50;;;3.07;;
9914;SDS011;4996;48.746;9.174;2022-12-07T15:09:24;3.97;;;3.00;;
9914;SDS011;4996;48.746;9.174;2022-12-07T15:11:49;5.93;;;3.77;;
9914;SDS011;4996;48.746;9.174;2022-12-07T15:14:15;7.10;;;4.27;;
9914;SDS011;4996;48.746;9.174;2022-12-07T15:16:41;9.30;;;4.17;;
9914;SDS011;4996;48.746;9.174;2022-12-07T15:19:10;8.32;;;3.97;;
9914;SDS011;4996;48.746;9.174;2022-12-07T15:21:48;7.72;;;4.32;;
9914;SDS011;4996;48.746;9.174;2022-12-07T15:24:14;12.60;;;3.90;;
9914;SDS011;4996;48.746;9.174;2022-12-07T15:26:40;7.67;;;3.83;;
9914;SDS011;4996;48.746;9.174;2022-12-07T15:29:06;6.70;;;3.90;;
9914;SDS011;4996;48.746;9.174;2022-12-07T15:31:32;7.97;;;4.13;;
9914;SDS011;4996;48.746;9.174;2022-12-07T15:33:59;7.45;;;4.85;;
9914;SDS011;4996;48.746;9.174;2022-12-07T15:36:25;5.93;;;3.47;;
9914;SDS011;4996;48.746;9.174;2022-12-07T15:38:53;6.78;;;4.30;;
9914;SDS011;4996;48.746;9.174;2022-12-07T15:41:19;7.10;;;3.97;;
9914;SDS011;4996;48.746;9.174;2022-12-07T15:43:44;4.30;;;3.50;;
9914;SDS011;4996;48.746;9.174;2022-12-07T15:46:29;3.47;;;2.72;;
9914;SDS011;4996;48.746;9.174;2022-12-07T15:48:59;4.70;;;3.10;;
9914;SDS011;4996;48.746;9.174;2022-12-07T15:51:26;5.47;;;3.75;;
9914;SDS011;4996;48.746;9.174;2022-12-07T15:53:51;5.07;;;2.80;;
9914;SDS011;4996;48.746;9.174;2022-12-07T15:56:17;6.20;;;3.90;;
9914;SDS011;4996;48.746;9.174;2022-12-07T15:58:43;5.63;;;3.50;;
9914;SDS011;4996;48.746;9.174;2022-12-07T16:01:11;7.50;;;4.00;;
9914;SDS011;4996;48.746;9.174;2022-12-07T16:03:42;4.70;;;3.15;;
9914;SDS011;4996;48.746;9.174;2022-12-07T16:06:08;4.90;;;3.10;;
9914;SDS011;4996;48.746;9.174;2022-12-07T16:08:34;6.70;;;3.90;;
9914;SDS011;4996;48.746;9.174;2022-12-07T16:11:03;5.20;;;3.70;;
9914;SDS011;4996;48.746;9.174;2022-12-07T16:13:30;5.40;;;3.20;;
9914;SDS011;4996;48.746;9.174;2022-12-07T16:15:56;6.10;;;3.83;;
9914;SDS011;4996;48.746;9.174;2022-12-07T16:18:21;4.20;;;3.20;;
9914;SDS011;4996;48.746;9.174;2022-12-07T16:20:48;7.27;;;4.43;;
9914;SDS011;4996;48.746;9.174;2022-12-07T16:23:14;13.52;;;5.90;;
9914;SDS011;4996;48.746;9.174;2022-12-07T16:25:40;12.53;;;6.50;;
9914;SDS011;4996;48.746;9.174;2022-12-07T16:28:06;12.57;;;6.23;;
9914;SDS011;4996;48.746;9.174;2022-12-07T16:30:31;12.75;;;6.40;;
9914;SDS011;4996;48.746;9.174;2022-12-07T16:32:58;10.45;;;5.80;;
9914;SDS011;4996;48.746;9.174;2022-12-07T16:35:23;13.30;;;7.03;;
9914;SDS011;4996;48.746;9.174;2022-12-07T16:37:49;13.07;;;7.03;;
9914;SDS011;4996;48.746;9.174;2022-12-07T16:40:14;10.63;;;7.43;;
9914;SDS011;4996;48.746;9.174;2022-12-07T16:42:40;12.13;;;6.40;;
9914;SDS011;4996;48.746;9.174;2022-12-07T16:45:05;13.13;;;6.77;;
9914;SDS011;4996;48.746;9.174;2022-12-07T16:47:31;9.87;;;6.33;;
9914;SDS011;4996;48.746;9.174;2022-12-07T16:49:57;13.53;;;7.30;;
9914;SDS011;4996;48.746;9.174;2022-12-07T16:52:22;11.20;;;5.60;;
9914;SDS011;4996;48.746;9.174;2022-12-07T16:54:48;13.53;;;7.03;;
9914;SDS011;4996;48.746;9.174;2022-12-07T16:57:14;10.10;;;6.68;;
9914;SDS011;4996;48.746;9.174;2022-12-07T16:59:41;13.02;;;6.93;;
9914;SDS011;4996;48.746;9.174;2022-12-07T17:02:08;12.80;;;7.53;;
9914;SDS011;4996;48.746;9.174;2022-12-07T17:04:36;12.25;;;5.90;;
9914;SDS011;4996;48.746;9.174;2022-12-07T17:07:04;12.05;;;7.00;;
9914;SDS011;4996;48.746;9.174;2022-12-07T17:09:30;8.90;;;5.60;;
9914;SDS011;4996;48.746;9.174;2022-12-07T17:11:55;10.40;;;7.40;;
9914;SDS011;4996;48.746;9.174;2022-12-07T17:14:21;11.07;;;5.87;;
9914;SDS011;4996;48.746;9.174;2022-12-07T17:17:05;13.88;;;6.30;;
9914;SDS011;4996;48.746;9.174;2022-12-07T17:19:30;12.67;;;6.60;;